S 386 Casilo — OZZP — position and weather

sailwx.info

Track history (hours):
 
Tides and Currents Weather Stations Pressure Air Temp Water Temp Dewpoint Dewpoint Depression Visibility Wind Speed Wind Dir Waves Ship Positions

S 386 Casilo

Last reported at 2017-Jan-19 12:05 UTC. Time now 2017-Jan-19 13:04 UTC.
Position N 57°43' E 010°36'.

Length 24 m.

Type: Fishing. MMSI: 219948000.

Date/timePositionNaut miles runAvg speedWind from/ knotsBaromVisibWave heightAir tempDewpointWater temp
2017-Jan-19 12:05N 57°43' E 010°36'4 7.5
2017-Jan-19 11:33N 57°45' E 010°43'53 1.8
2017-Jan-18 05:28N 57°52' E 009°04'26 1.8
2017-Jan-17 15:20N 57°37' E 009°43'6 7.4
2017-Jan-17 14:33N 57°37' E 009°54'2 2.4
2017-Jan-17 13:33N 57°36' E 009°58'0 0.0
2017-Jan-17 12:33N 57°36' E 009°58'  
2017-Jan-12 21:16N 57°46' E 010°26'4 5.7
2017-Jan-12 20:33N 57°46' E 010°34'5 4.6
2017-Jan-12 19:33N 57°44' E 010°41'3 3.0
2017-Jan-12 18:29N 57°43' E 010°36'0 0.0
2017-Jan-12 17:32N 57°43' E 010°36'0 0.0
2017-Jan-12 15:32N 57°43' E 010°36'0 0.0
2017-Jan-12 14:33N 57°43' E 010°36'0 0.0
2017-Jan-12 13:26N 57°43' E 010°36'0 0.0
2017-Jan-12 12:31N 57°43' E 010°36'0 0.0
2017-Jan-12 11:29N 57°43' E 010°36'0 0.0
2017-Jan-12 10:28N 57°43' E 010°36'0 0.0
2017-Jan-12 09:30N 57°43' E 010°36'0 0.0
2017-Jan-12 08:25N 57°43' E 010°36'0 0.0
2017-Jan-12 07:33N 57°43' E 010°36'0 0.0
2017-Jan-12 06:28N 57°43' E 010°36'0 0.0
2017-Jan-12 05:29N 57°43' E 010°36'0 0.0
2017-Jan-12 04:27N 57°43' E 010°36'0 0.0
2017-Jan-12 03:22N 57°43' E 010°36'0 0.0
2017-Jan-12 02:33N 57°43' E 010°36'0 0.0
2017-Jan-12 01:33N 57°43' E 010°36'0 0.0
2017-Jan-12 00:31N 57°43' E 010°36'0 0.0
2017-Jan-11 23:26N 57°43' E 010°36'0 0.0
2017-Jan-11 22:32N 57°43' E 010°36'0 0.0
2017-Jan-11 21:27N 57°43' E 010°36'0 0.0
2017-Jan-11 20:19N 57°43' E 010°36'0 0.0
2017-Jan-11 19:30N 57°43' E 010°36'0 0.0
2017-Jan-11 18:33N 57°43' E 010°36'0 0.0
2017-Jan-11 16:28N 57°43' E 010°36'0 0.0
2017-Jan-11 15:32N 57°43' E 010°36'0 0.0
2017-Jan-11 14:32N 57°43' E 010°36'0 0.0
2017-Jan-11 13:33N 57°43' E 010°36'0 0.0
2017-Jan-11 12:33N 57°43' E 010°36'0 0.0
2017-Jan-11 11:33N 57°43' E 010°36'0 0.0
2017-Jan-11 10:33N 57°43' E 010°36'0 0.0
2017-Jan-11 09:33N 57°43' E 010°36'0 0.0
2017-Jan-11 07:15N 57°43' E 010°36'0 0.0
2017-Jan-11 06:29N 57°43' E 010°36'3 3.5
2017-Jan-11 05:33N 57°44' E 010°42'4 3.8
2017-Jan-11 04:33N 57°48' E 010°43'4 3.6
2017-Jan-11 03:33N 57°51' E 010°42'3 3.4
2017-Jan-11 02:32N 57°55' E 010°40'  
Track history (hours):
 
Tides and Currents Weather Stations Pressure Air Temp Water Temp Dewpoint Dewpoint Depression Visibility Wind Speed Wind Dir Waves Ship Positions

S 386 Casilo

Last reported at 2017-Jan-19 12:05 UTC. Time now 2017-Jan-19 13:04 UTC.
Position N 57°43' E 010°36'.

Length 24 m.

Type: Fishing. MMSI: 219948000.

Date/timePositionNaut miles runAvg speedWind from/ knotsBaromVisibWave heightAir tempDewpointWater temp
2017-Jan-19 12:05N 57°43' E 010°36'4 7.5
2017-Jan-19 11:33N 57°45' E 010°43'53 1.8
2017-Jan-18 05:28N 57°52' E 009°04'26 1.8
2017-Jan-17 15:20N 57°37' E 009°43'6 7.4
2017-Jan-17 14:33N 57°37' E 009°54'2 2.4
2017-Jan-17 13:33N 57°36' E 009°58'0 0.0
2017-Jan-17 12:33N 57°36' E 009°58'  
2017-Jan-12 21:16N 57°46' E 010°26'4 5.7
2017-Jan-12 20:33N 57°46' E 010°34'5 4.6
2017-Jan-12 19:33N 57°44' E 010°41'3 3.0
2017-Jan-12 18:29N 57°43' E 010°36'0 0.0
2017-Jan-12 17:32N 57°43' E 010°36'0 0.0
2017-Jan-12 15:32N 57°43' E 010°36'0 0.0
2017-Jan-12 14:33N 57°43' E 010°36'0 0.0
2017-Jan-12 13:26N 57°43' E 010°36'0 0.0
2017-Jan-12 12:31N 57°43' E 010°36'0 0.0
2017-Jan-12 11:29N 57°43' E 010°36'0 0.0
2017-Jan-12 10:28N 57°43' E 010°36'0 0.0
2017-Jan-12 09:30N 57°43' E 010°36'0 0.0
2017-Jan-12 08:25N 57°43' E 010°36'0 0.0
2017-Jan-12 07:33N 57°43' E 010°36'0 0.0
2017-Jan-12 06:28N 57°43' E 010°36'0 0.0
2017-Jan-12 05:29N 57°43' E 010°36'0 0.0
2017-Jan-12 04:27N 57°43' E 010°36'0 0.0
2017-Jan-12 03:22N 57°43' E 010°36'0 0.0
2017-Jan-12 02:33N 57°43' E 010°36'0 0.0
2017-Jan-12 01:33N 57°43' E 010°36'0 0.0
2017-Jan-12 00:31N 57°43' E 010°36'0 0.0
2017-Jan-11 23:26N 57°43' E 010°36'0 0.0
2017-Jan-11 22:32N 57°43' E 010°36'0 0.0
2017-Jan-11 21:27N 57°43' E 010°36'0 0.0
2017-Jan-11 20:19N 57°43' E 010°36'0 0.0
2017-Jan-11 19:30N 57°43' E 010°36'0 0.0
2017-Jan-11 18:33N 57°43' E 010°36'0 0.0
2017-Jan-11 16:28N 57°43' E 010°36'0 0.0
2017-Jan-11 15:32N 57°43' E 010°36'0 0.0
2017-Jan-11 14:32N 57°43' E 010°36'0 0.0
2017-Jan-11 13:33N 57°43' E 010°36'0 0.0
2017-Jan-11 12:33N 57°43' E 010°36'0 0.0
2017-Jan-11 11:33N 57°43' E 010°36'0 0.0
2017-Jan-11 10:33N 57°43' E 010°36'0 0.0
2017-Jan-11 09:33N 57°43' E 010°36'0 0.0
2017-Jan-11 07:15N 57°43' E 010°36'0 0.0
2017-Jan-11 06:29N 57°43' E 010°36'3 3.5
2017-Jan-11 05:33N 57°44' E 010°42'4 3.8
2017-Jan-11 04:33N 57°48' E 010°43'4 3.6
2017-Jan-11 03:33N 57°51' E 010°42'3 3.4
2017-Jan-11 02:32N 57°55' E 010°40'  

Dump ship's entire track history